sensor_id;sensor_type;location;lat;lon;timestamp;pressure;altitude;pressure_sealevel;temperature;humidity
72636;BME280;60679;48.888;15.544;2023-12-29T00:00:34;96243.38;;;6.76;65.70
72636;BME280;60679;48.888;15.544;2023-12-29T00:02:59;96253.88;;;6.71;65.76
72636;BME280;60679;48.888;15.544;2023-12-29T00:05:24;96254.28;;;6.68;65.57
72636;BME280;60679;48.888;15.544;2023-12-29T00:07:50;96251.38;;;6.69;65.79
72636;BME280;60679;48.888;15.544;2023-12-29T00:10:15;96251.00;;;6.72;65.89
72636;BME280;60679;48.888;15.544;2023-12-29T00:12:44;96247.69;;;6.70;66.06
72636;BME280;60679;48.888;15.544;2023-12-29T00:15:10;96246.28;;;6.74;65.88
72636;BME280;60679;48.888;15.544;2023-12-29T00:17:35;96231.41;;;6.78;66.08
72636;BME280;60679;48.888;15.544;2023-12-29T00:20:08;96234.72;;;6.80;65.99
72636;BME280;60679;48.888;15.544;2023-12-29T00:22:34;96234.13;;;6.85;65.96
72636;BME280;60679;48.888;15.544;2023-12-29T00:24:59;96231.69;;;6.96;65.87
72636;BME280;60679;48.888;15.544;2023-12-29T00:27:25;96233.16;;;7.12;65.99
72636;BME280;60679;48.888;15.544;2023-12-29T00:29:50;96227.81;;;7.19;65.63
72636;BME280;60679;48.888;15.544;2023-12-29T00:32:16;96220.34;;;7.14;65.72
72636;BME280;60679;48.888;15.544;2023-12-29T00:34:41;96228.41;;;7.14;65.80
72636;BME280;60679;48.888;15.544;2023-12-29T00:37:06;96228.00;;;7.17;65.63
72636;BME280;60679;48.888;15.544;2023-12-29T00:39:33;96225.75;;;7.21;65.61
72636;BME280;60679;48.888;15.544;2023-12-29T00:42:04;96224.31;;;7.18;65.69
72636;BME280;60679;48.888;15.544;2023-12-29T00:44:31;96229.66;;;7.18;65.78
72636;BME280;60679;48.888;15.544;2023-12-29T00:46:56;96228.25;;;7.22;65.52
72636;BME280;60679;48.888;15.544;2023-12-29T00:49:24;96231.53;;;7.11;65.51
72636;BME280;60679;48.888;15.544;2023-12-29T00:51:50;96231.09;;;7.14;65.71
72636;BME280;60679;48.888;15.544;2023-12-29T00:54:15;96241.03;;;7.20;65.62
72636;BME280;60679;48.888;15.544;2023-12-29T00:56:41;96233.16;;;7.12;65.50
72636;BME280;60679;48.888;15.544;2023-12-29T00:59:06;96228.00;;;7.17;65.39
72636;BME280;60679;48.888;15.544;2023-12-29T01:01:35;96234.63;;;7.21;65.72
72636;BME280;60679;48.888;15.544;2023-12-29T01:04:02;96218.50;;;7.15;65.58
72636;BME280;60679;48.888;15.544;2023-12-29T01:06:27;96229.44;;;7.20;65.60
72636;BME280;60679;48.888;15.544;2023-12-29T01:08:53;96231.34;;;7.19;65.66
72636;BME280;60679;48.888;15.544;2023-12-29T01:11:18;96232.72;;;7.09;65.46
72636;BME280;60679;48.888;15.544;2023-12-29T01:13:44;96238.72;;;7.04;65.77
72636;BME280;60679;48.888;15.544;2023-12-29T01:16:09;96239.53;;;6.98;65.61
72636;BME280;60679;48.888;15.544;2023-12-29T01:18:35;96237.88;;;7.04;65.71
72636;BME280;60679;48.888;15.544;2023-12-29T01:21:00;96226.78;;;7.13;65.74
72636;BME280;60679;48.888;15.544;2023-12-29T01:23:26;96230.28;;;7.20;65.59
72636;BME280;60679;48.888;15.544;2023-12-29T01:25:51;96232.78;;;7.28;65.87
72636;BME280;60679;48.888;15.544;2023-12-29T01:28:16;96227.44;;;7.35;65.66
72636;BME280;60679;48.888;15.544;2023-12-29T01:30:42;96226.59;;;7.34;65.37
72636;BME280;60679;48.888;15.544;2023-12-29T01:33:07;96231.56;;;7.37;65.56
72636;BME280;60679;48.888;15.544;2023-12-29T01:35:33;96235.28;;;7.30;65.66
72636;BME280;60679;48.888;15.544;2023-12-29T01:37:58;96227.41;;;7.28;65.66
72636;BME280;60679;48.888;15.544;2023-12-29T01:40:23;96234.03;;;7.32;65.43
72636;BME280;60679;48.888;15.544;2023-12-29T01:42:49;96224.75;;;7.41;65.67
72636;BME280;60679;48.888;15.544;2023-12-29T01:45:22;96221.47;;;7.52;65.56
72636;BME280;60679;48.888;15.544;2023-12-29T01:47:49;96224.56;;;7.56;65.54
72636;BME280;60679;48.888;15.544;2023-12-29T01:50:15;96213.81;;;7.56;65.56
72636;BME280;60679;48.888;15.544;2023-12-29T01:52:43;96212.78;;;7.57;65.57
72636;BME280;60679;48.888;15.544;2023-12-29T01:55:11;96211.53;;;7.53;65.47
72636;BME280;60679;48.888;15.544;2023-12-29T01:57:38;96208.00;;;7.46;65.58
72636;BME280;60679;48.888;15.544;2023-12-29T02:00:05;96202.84;;;7.51;65.49
72636;BME280;60679;48.888;15.544;2023-12-29T02:02:31;96202.63;;;7.46;65.52
72636;BME280;60679;48.888;15.544;2023-12-29T02:04:57;96188.41;;;7.39;65.61
72636;BME280;60679;48.888;15.544;2023-12-29T02:07:23;96184.44;;;7.28;65.93
72636;BME280;60679;48.888;15.544;2023-12-29T02:09:49;96181.97;;;7.33;65.82
72636;BME280;60679;48.888;15.544;2023-12-29T02:12:17;96175.78;;;7.26;65.78
72636;BME280;60679;48.888;15.544;2023-12-29T02:14:42;96180.31;;;7.13;65.87
72636;BME280;60679;48.888;15.544;2023-12-29T02:17:15;96169.94;;;7.03;65.88
72636;BME280;60679;48.888;15.544;2023-12-29T02:19:46;96180.03;;;6.94;66.16
72636;BME280;60679;48.888;15.544;2023-12-29T02:22:14;96185.63;;;6.93;66.20
72636;BME280;60679;48.888;15.544;2023-12-29T02:24:39;96175.75;;;7.07;66.08
72636;BME280;60679;48.888;15.544;2023-12-29T02:32:59;96189.56;;;7.04;66.17
72636;BME280;60679;48.888;15.544;2023-12-29T02:35:28;96193.09;;;7.04;66.44
72636;BME280;60679;48.888;15.544;2023-12-29T02:37:57;96179.28;;;7.14;66.08
72636;BME280;60679;48.888;15.544;2023-12-29T02:40:25;96177.81;;;7.18;66.21
72636;BME280;60679;48.888;15.544;2023-12-29T02:42:50;96191.69;;;7.28;66.27
72636;BME280;60679;48.888;15.544;2023-12-29T02:45:16;96197.25;;;7.26;66.12
72636;BME280;60679;48.888;15.544;2023-12-29T02:47:42;96191.06;;;7.19;66.18
72636;BME280;60679;48.888;15.544;2023-12-29T02:50:09;96197.84;;;7.02;66.08
72636;BME280;60679;48.888;15.544;2023-12-29T02:52:35;96188.09;;;6.94;66.20
72636;BME280;60679;48.888;15.544;2023-12-29T02:55:00;96188.31;;;6.93;66.32
72636;BME280;60679;48.888;15.544;2023-12-29T02:57:25;96200.94;;;6.99;66.26
72636;BME280;60679;48.888;15.544;2023-12-29T02:59:51;96189.34;;;6.92;66.37
72636;BME280;60679;48.888;15.544;2023-12-29T03:02:19;96195.28;;;6.81;66.48
72636;BME280;60679;48.888;15.544;2023-12-29T03:04:45;96205.59;;;6.71;66.51
72636;BME280;60679;48.888;15.544;2023-12-29T03:07:10;96203.13;;;6.76;66.72
72636;BME280;60679;48.888;15.544;2023-12-29T03:09:36;96211.59;;;6.79;66.64
72636;BME280;60679;48.888;15.544;2023-12-29T03:12:01;96210.38;;;6.82;66.67
72636;BME280;60679;48.888;15.544;2023-12-29T03:14:27;96215.19;;;7.00;66.77
72636;BME280;60679;48.888;15.544;2023-12-29T03:16:52;96219.72;;;7.06;66.45
72636;BME280;60679;48.888;15.544;2023-12-29T03:19:18;96216.81;;;7.01;66.33
72636;BME280;60679;48.888;15.544;2023-12-29T03:21:43;96222.19;;;7.01;66.44
72636;BME280;60679;48.888;15.544;2023-12-29T03:24:08;96223.81;;;6.95;66.59
72636;BME280;60679;48.888;15.544;2023-12-29T03:26:34;96214.72;;;6.89;66.63
72636;BME280;60679;48.888;15.544;2023-12-29T03:29:00;96219.66;;;6.86;66.62
72636;BME280;60679;48.888;15.544;2023-12-29T03:31:26;96209.13;;;6.84;66.58
72636;BME280;60679;48.888;15.544;2023-12-29T03:33:51;96215.53;;;6.83;66.76
72636;BME280;60679;48.888;15.544;2023-12-29T03:36:17;96218.00;;;6.78;66.85
72636;BME280;60679;48.888;15.544;2023-12-29T03:38:42;96215.94;;;6.74;66.77
72636;BME280;60679;48.888;15.544;2023-12-29T03:41:08;96214.88;;;6.68;66.68
72636;BME280;60679;48.888;15.544;2023-12-29T03:43:33;96201.66;;;6.60;66.92
72636;BME280;60679;48.888;15.544;2023-12-29T03:45:58;96211.47;;;6.47;66.87
72636;BME280;60679;48.888;15.544;2023-12-29T03:48:24;96205.19;;;6.26;66.91
72636;BME280;60679;48.888;15.544;2023-12-29T03:50:49;96206.38;;;6.17;67.23
72636;BME280;60679;48.888;15.544;2023-12-29T03:53:15;96212.03;;;6.29;67.36
72636;BME280;60679;48.888;15.544;2023-12-29T03:55:41;96213.53;;;6.45;67.28
72636;BME280;60679;48.888;15.544;2023-12-29T03:58:07;96192.94;;;6.58;67.12
72636;BME280;60679;48.888;15.544;2023-12-29T04:00:32;96204.31;;;6.60;67.04
72636;BME280;60679;48.888;15.544;2023-12-29T04:02:57;96193.16;;;6.57;67.17
72636;BME280;60679;48.888;15.544;2023-12-29T04:05:23;96194.00;;;6.57;67.23
72636;BME280;60679;48.888;15.544;2023-12-29T04:07:51;96187.97;;;6.55;67.21
72636;BME280;60679;48.888;15.544;2023-12-29T04:10:17;96184.91;;;6.58;67.09
72636;BME280;60679;48.888;15.544;2023-12-29T04:12:42;96192.28;;;6.50;67.06
72636;BME280;60679;48.888;15.544;2023-12-29T04:15:08;96191.06;;;6.52;67.34
72636;BME280;60679;48.888;15.544;2023-12-29T04:17:33;96183.03;;;6.59;67.52
72636;BME280;60679;48.888;15.544;2023-12-29T04:20:01;96178.94;;;6.63;67.37
72636;BME280;60679;48.888;15.544;2023-12-29T04:22:27;96172.34;;;6.65;67.21
72636;BME280;60679;48.888;15.544;2023-12-29T04:24:53;96178.72;;;6.64;67.28
72636;BME280;60679;48.888;15.544;2023-12-29T04:27:22;96171.91;;;6.62;67.27
72636;BME280;60679;48.888;15.544;2023-12-29T04:29:47;96170.47;;;6.59;67.46
72636;BME280;60679;48.888;15.544;2023-12-29T04:32:14;96173.19;;;6.66;67.56
72636;BME280;60679;48.888;15.544;2023-12-29T04:34:39;96177.09;;;6.70;67.04
72636;BME280;60679;48.888;15.544;2023-12-29T04:37:05;96183.47;;;6.62;67.39
72636;BME280;60679;48.888;15.544;2023-12-29T04:39:30;96176.63;;;6.53;67.48
72636;BME280;60679;48.888;15.544;2023-12-29T04:41:56;96172.28;;;6.52;67.55
72636;BME280;60679;48.888;15.544;2023-12-29T04:44:21;96162.97;;;6.42;67.68
72636;BME280;60679;48.888;15.544;2023-12-29T04:46:47;96160.03;;;6.30;67.65
72636;BME280;60679;48.888;15.544;2023-12-29T04:49:12;96156.50;;;6.29;67.65
72636;BME280;60679;48.888;15.544;2023-12-29T04:51:38;96155.28;;;6.25;67.68
72636;BME280;60679;48.888;15.544;2023-12-29T04:54:04;96150.53;;;6.21;67.63
72636;BME280;60679;48.888;15.544;2023-12-29T04:56:30;96152.94;;;6.16;67.76
72636;BME280;60679;48.888;15.544;2023-12-29T04:58:56;96157.81;;;5.99;67.82
72636;BME280;60679;48.888;15.544;2023-12-29T05:01:21;96149.47;;;5.81;68.08
72636;BME280;60679;48.888;15.544;2023-12-29T05:03:47;96153.03;;;5.60;67.79
72636;BME280;60679;48.888;15.544;2023-12-29T05:06:12;96161.78;;;5.48;67.87
72636;BME280;60679;48.888;15.544;2023-12-29T05:08:38;96146.63;;;5.34;68.17
72636;BME280;60679;48.888;15.544;2023-12-29T05:11:03;96147.13;;;5.16;68.09
72636;BME280;60679;48.888;15.544;2023-12-29T05:13:28;96154.63;;;5.06;68.23
72636;BME280;60679;48.888;15.544;2023-12-29T05:15:54;96158.41;;;4.90;68.37
72636;BME280;60679;48.888;15.544;2023-12-29T05:18:20;96153.03;;;4.69;68.26
72636;BME280;60679;48.888;15.544;2023-12-29T05:20:45;96161.03;;;4.62;68.53
72636;BME280;60679;48.888;15.544;2023-12-29T05:23:11;96161.69;;;4.50;68.42
72636;BME280;60679;48.888;15.544;2023-12-29T05:25:36;96166.53;;;4.40;68.51
72636;BME280;60679;48.888;15.544;2023-12-29T05:28:02;96157.69;;;4.25;68.45
72636;BME280;60679;48.888;15.544;2023-12-29T05:30:27;96157.72;;;3.95;68.74
72636;BME280;60679;48.888;15.544;2023-12-29T05:32:56;96150.47;;;3.75;68.77
72636;BME280;60679;48.888;15.544;2023-12-29T05:35:22;96152.03;;;3.69;68.79
72636;BME280;60679;48.888;15.544;2023-12-29T05:37:47;96165.41;;;3.84;69.07
72636;BME280;60679;48.888;15.544;2023-12-29T05:40:13;96154.22;;;4.09;68.94
72636;BME280;60679;48.888;15.544;2023-12-29T05:42:38;96161.97;;;4.40;68.80
72636;BME280;60679;48.888;15.544;2023-12-29T05:45:04;96165.81;;;4.52;68.50
72636;BME280;60679;48.888;15.544;2023-12-29T05:47:33;96157.75;;;4.67;68.77
72636;BME280;60679;48.888;15.544;2023-12-29T05:49:58;96151.84;;;4.72;68.60
72636;BME280;60679;48.888;15.544;2023-12-29T05:52:27;96158.22;;;4.71;68.83
72636;BME280;60679;48.888;15.544;2023-12-29T05:54:53;96147.91;;;4.68;68.71
72636;BME280;60679;48.888;15.544;2023-12-29T05:57:19;96147.81;;;4.61;68.70
72636;BME280;60679;48.888;15.544;2023-12-29T05:59:44;96146.94;;;4.54;68.63
72636;BME280;60679;48.888;15.544;2023-12-29T06:02:10;96135.41;;;4.53;68.74
72636;BME280;60679;48.888;15.544;2023-12-29T06:04:35;96135.16;;;4.70;68.82
72636;BME280;60679;48.888;15.544;2023-12-29T06:07:01;96138.59;;;4.85;68.59
72636;BME280;60679;48.888;15.544;2023-12-29T06:09:27;96127.56;;;4.94;68.98
72636;BME280;60679;48.888;15.544;2023-12-29T06:11:52;96141.00;;;5.01;68.68
72636;BME280;60679;48.888;15.544;2023-12-29T06:14:18;96122.53;;;5.06;68.93
72636;BME280;60679;48.888;15.544;2023-12-29T06:16:43;96128.91;;;5.05;68.73
72636;BME280;60679;48.888;15.544;2023-12-29T06:19:09;96126.28;;;5.11;68.91
72636;BME280;60679;48.888;15.544;2023-12-29T06:21:43;96121.63;;;5.20;68.77
72636;BME280;60679;48.888;15.544;2023-12-29T06:24:12;96138.88;;;5.17;68.88
72636;BME280;60679;48.888;15.544;2023-12-29T06:26:37;96139.50;;;5.19;68.45
72636;BME280;60679;48.888;15.544;2023-12-29T06:29:09;96138.88;;;5.17;68.72
72636;BME280;60679;48.888;15.544;2023-12-29T06:31:34;96147.06;;;5.09;68.63
72636;BME280;60679;48.888;15.544;2023-12-29T06:33:59;96144.13;;;5.04;68.72
72636;BME280;60679;48.888;15.544;2023-12-29T06:36:25;96148.16;;;4.94;68.79
72636;BME280;60679;48.888;15.544;2023-12-29T06:38:51;96145.03;;;4.90;68.74
72636;BME280;60679;48.888;15.544;2023-12-29T06:41:18;96142.13;;;4.85;68.87
72636;BME280;60679;48.888;15.544;2023-12-29T06:43:46;96145.81;;;4.84;68.79
72636;BME280;60679;48.888;15.544;2023-12-29T06:46:12;96142.16;;;4.92;69.14
72636;BME280;60679;48.888;15.544;2023-12-29T06:48:39;96154.00;;;5.04;68.96
72636;BME280;60679;48.888;15.544;2023-12-29T06:51:08;96142.53;;;5.10;68.83
72636;BME280;60679;48.888;15.544;2023-12-29T06:53:35;96142.94;;;5.07;68.69
72636;BME280;60679;48.888;15.544;2023-12-29T06:56:00;96135.50;;;5.02;68.83
72636;BME280;60679;48.888;15.544;2023-12-29T06:58:26;96126.25;;;5.05;68.73
72636;BME280;60679;48.888;15.544;2023-12-29T07:00:51;96130.03;;;5.17;68.68
72636;BME280;60679;48.888;15.544;2023-12-29T07:03:17;96114.03;;;5.51;68.20
72636;BME280;60679;48.888;15.544;2023-12-29T07:05:42;96118.66;;;5.98;67.80
72636;BME280;60679;48.888;15.544;2023-12-29T07:08:08;96116.28;;;6.29;67.42
72636;BME280;60679;48.888;15.544;2023-12-29T07:10:36;96122.75;;;6.42;67.38
72636;BME280;60679;48.888;15.544;2023-12-29T07:13:02;96123.78;;;6.47;67.26
72636;BME280;60679;48.888;15.544;2023-12-29T07:15:28;96126.69;;;6.52;66.97
72636;BME280;60679;48.888;15.544;2023-12-29T07:17:53;96126.28;;;6.55;67.07
72636;BME280;60679;48.888;15.544;2023-12-29T07:20:19;96121.31;;;6.52;67.09
72636;BME280;60679;48.888;15.544;2023-12-29T07:22:44;96128.97;;;6.55;67.01
72636;BME280;60679;48.888;15.544;2023-12-29T07:25:10;96121.81;;;6.82;66.51
72636;BME280;60679;48.888;15.544;2023-12-29T07:27:39;96125.34;;;7.48;65.83
72636;BME280;60679;48.888;15.544;2023-12-29T07:30:05;96134.59;;;7.91;65.24
72636;BME280;60679;48.888;15.544;2023-12-29T07:32:31;96135.13;;;8.20;64.91
72636;BME280;60679;48.888;15.544;2023-12-29T07:34:57;96144.91;;;8.65;64.00
72636;BME280;60679;48.888;15.544;2023-12-29T07:37:23;96144.03;;;8.78;63.62
72636;BME280;60679;48.888;15.544;2023-12-29T07:39:48;96137.56;;;8.85;63.21
72636;BME280;60679;48.888;15.544;2023-12-29T07:42:14;96140.13;;;9.05;62.96
72636;BME280;60679;48.888;15.544;2023-12-29T07:44:42;96129.50;;;9.16;62.92
72636;BME280;60679;48.888;15.544;2023-12-29T07:47:08;96133.34;;;9.27;62.74
72636;BME280;60679;48.888;15.544;2023-12-29T07:49:35;96132.91;;;8.99;63.23
72636;BME280;60679;48.888;15.544;2023-12-29T07:52:00;96145.72;;;8.72;63.61
72636;BME280;60679;48.888;15.544;2023-12-29T07:54:26;96149.59;;;8.19;64.31
72636;BME280;60679;48.888;15.544;2023-12-29T07:56:51;96143.81;;;8.28;64.27
72636;BME280;60679;48.888;15.544;2023-12-29T07:59:20;96147.03;;;8.50;63.89
72636;BME280;60679;48.888;15.544;2023-12-29T08:01:45;96150.03;;;8.73;63.98
72636;BME280;60679;48.888;15.544;2023-12-29T08:04:11;96143.94;;;8.91;64.02
72636;BME280;60679;48.888;15.544;2023-12-29T08:06:39;96158.41;;;8.96;63.89
72636;BME280;60679;48.888;15.544;2023-12-29T08:09:05;96142.84;;;8.98;63.80
72636;BME280;60679;48.888;15.544;2023-12-29T08:11:32;96144.03;;;9.09;64.10
72636;BME280;60679;48.888;15.544;2023-12-29T08:13:57;96158.47;;;9.21;63.81
72636;BME280;60679;48.888;15.544;2023-12-29T08:16:26;96150.09;;;9.29;63.66
72636;BME280;60679;48.888;15.544;2023-12-29T08:18:52;96161.38;;;9.51;63.49
72636;BME280;60679;48.888;15.544;2023-12-29T08:21:18;96167.19;;;9.72;63.18
72636;BME280;60679;48.888;15.544;2023-12-29T08:23:47;96176.75;;;9.93;62.72
72636;BME280;60679;48.888;15.544;2023-12-29T08:26:13;96185.09;;;10.10;62.46
72636;BME280;60679;48.888;15.544;2023-12-29T08:28:42;96177.13;;;10.21;62.36
72636;BME280;60679;48.888;15.544;2023-12-29T08:31:08;96181.03;;;10.43;62.14
72636;BME280;60679;48.888;15.544;2023-12-29T08:33:33;96185.00;;;10.59;61.92
72636;BME280;60679;48.888;15.544;2023-12-29T08:36:02;96174.50;;;10.69;61.49
72636;BME280;60679;48.888;15.544;2023-12-29T08:38:29;96178.50;;;10.96;61.61
72636;BME280;60679;48.888;15.544;2023-12-29T08:40:55;96178.22;;;11.16;61.17
72636;BME280;60679;48.888;15.544;2023-12-29T08:43:21;96175.38;;;11.41;61.01
72636;BME280;60679;48.888;15.544;2023-12-29T08:45:53;96176.19;;;11.41;60.76
72636;BME280;60679;48.888;15.544;2023-12-29T08:48:21;96177.53;;;11.50;60.95
72636;BME280;60679;48.888;15.544;2023-12-29T08:50:47;96177.50;;;11.39;61.21
72636;BME280;60679;48.888;15.544;2023-12-29T08:53:13;96182.06;;;11.38;61.22
72636;BME280;60679;48.888;15.544;2023-12-29T08:55:38;96185.59;;;11.39;61.29
72636;BME280;60679;48.888;15.544;2023-12-29T08:58:04;96179.16;;;11.40;61.12
72636;BME280;60679;48.888;15.544;2023-12-29T09:00:29;96181.06;;;11.51;61.25
72636;BME280;60679;48.888;15.544;2023-12-29T09:02:56;96186.50;;;11.63;61.29
72636;BME280;60679;48.888;15.544;2023-12-29T09:05:22;96180.78;;;11.71;60.82
72636;BME280;60679;48.888;15.544;2023-12-29T09:07:47;96183.72;;;11.81;61.13
72636;BME280;60679;48.888;15.544;2023-12-29T09:10:13;96190.53;;;11.83;61.08
72636;BME280;60679;48.888;15.544;2023-12-29T09:12:39;96194.53;;;11.81;60.98
72636;BME280;60679;48.888;15.544;2023-12-29T09:15:06;96187.81;;;11.72;61.12
72636;BME280;60679;48.888;15.544;2023-12-29T09:17:32;96183.19;;;11.60;60.83
72636;BME280;60679;48.888;15.544;2023-12-29T09:19:58;96187.41;;;11.56;60.55
72636;BME280;60679;48.888;15.544;2023-12-29T09:22:26;96186.69;;;11.49;60.73
72636;BME280;60679;48.888;15.544;2023-12-29T09:24:54;96178.81;;;11.48;60.73
72636;BME280;60679;48.888;15.544;2023-12-29T09:27:20;96180.81;;;11.52;60.89
72636;BME280;60679;48.888;15.544;2023-12-29T09:29:45;96172.56;;;11.47;61.26
72636;BME280;60679;48.888;15.544;2023-12-29T09:32:11;96163.53;;;11.53;61.05
72636;BME280;60679;48.888;15.544;2023-12-29T09:34:36;96170.00;;;11.52;61.20
72636;BME280;60679;48.888;15.544;2023-12-29T09:37:05;96170.56;;;11.96;60.74
72636;BME280;60679;48.888;15.544;2023-12-29T09:39:30;96175.63;;;11.92;60.73
72636;BME280;60679;48.888;15.544;2023-12-29T09:41:58;96168.34;;;12.16;60.67
72636;BME280;60679;48.888;15.544;2023-12-29T09:44:26;96170.69;;;12.36;60.16
72636;BME280;60679;48.888;15.544;2023-12-29T09:46:54;96170.97;;;12.62;59.67
72636;BME280;60679;48.888;15.544;2023-12-29T09:49:20;96162.84;;;13.14;58.85
72636;BME280;60679;48.888;15.544;2023-12-29T09:51:50;96158.69;;;13.23;58.82
72636;BME280;60679;48.888;15.544;2023-12-29T09:54:15;96164.50;;;13.03;59.31
72636;BME280;60679;48.888;15.544;2023-12-29T09:56:41;96176.97;;;13.04;59.65
72636;BME280;60679;48.888;15.544;2023-12-29T09:59:09;96177.94;;;13.10;59.54
72636;BME280;60679;48.888;15.544;2023-12-29T10:01:38;96169.66;;;13.16;59.02
72636;BME280;60679;48.888;15.544;2023-12-29T10:04:04;96159.47;;;12.95;59.15
72636;BME280;60679;48.888;15.544;2023-12-29T10:06:34;96157.47;;;12.91;59.68
72636;BME280;60679;48.888;15.544;2023-12-29T10:09:02;96158.78;;;12.88;59.60
72636;BME280;60679;48.888;15.544;2023-12-29T10:11:37;96150.78;;;12.82;59.84
72636;BME280;60679;48.888;15.544;2023-12-29T10:14:21;96148.03;;;12.53;59.66
72636;BME280;60679;48.888;15.544;2023-12-29T10:16:53;96137.50;;;12.68;59.90
72636;BME280;60679;48.888;15.544;2023-12-29T10:19:37;96135.25;;;12.77;59.55
72636;BME280;60679;48.888;15.544;2023-12-29T10:22:21;96138.97;;;12.88;59.22
72636;BME280;60679;48.888;15.544;2023-12-29T10:24:51;96141.09;;;13.25;58.43
72636;BME280;60679;48.888;15.544;2023-12-29T10:27:17;96140.72;;;13.50;58.05
72636;BME280;60679;48.888;15.544;2023-12-29T10:29:43;96141.31;;;13.69;58.15
72636;BME280;60679;48.888;15.544;2023-12-29T10:32:09;96145.75;;;14.25;57.10
72636;BME280;60679;48.888;15.544;2023-12-29T10:34:35;96139.50;;;14.84;56.60
72636;BME280;60679;48.888;15.544;2023-12-29T10:37:03;96124.63;;;14.92;56.20
72636;BME280;60679;48.888;15.544;2023-12-29T10:39:34;96141.78;;;15.68;54.81
72636;BME280;60679;48.888;15.544;2023-12-29T10:42:08;96145.00;;;15.38;54.74
72636;BME280;60679;48.888;15.544;2023-12-29T10:44:35;96150.63;;;14.83;55.90
72636;BME280;60679;48.888;15.544;2023-12-29T10:47:16;96150.56;;;14.56;56.63
72636;BME280;60679;48.888;15.544;2023-12-29T10:49:42;96149.59;;;14.29;56.49
72636;BME280;60679;48.888;15.544;2023-12-29T10:52:15;96148.97;;;14.05;57.31
72636;BME280;60679;48.888;15.544;2023-12-29T10:54:43;96132.19;;;13.58;57.66
72636;BME280;60679;48.888;15.544;2023-12-29T10:57:13;96130.66;;;13.06;58.39
72636;BME280;60679;48.888;15.544;2023-12-29T10:59:39;96128.16;;;13.16;58.74
72636;BME280;60679;48.888;15.544;2023-12-29T11:02:04;96125.91;;;14.24;56.62
72636;BME280;60679;48.888;15.544;2023-12-29T11:04:30;96123.88;;;14.53;56.40
72636;BME280;60679;48.888;15.544;2023-12-29T11:06:59;96119.13;;;14.27;56.21
72636;BME280;60679;48.888;15.544;2023-12-29T11:09:31;96119.44;;;14.47;56.27
72636;BME280;60679;48.888;15.544;2023-12-29T11:12:03;96114.56;;;14.71;56.05
72636;BME280;60679;48.888;15.544;2023-12-29T11:14:29;96107.97;;;14.62;56.34
72636;BME280;60679;48.888;15.544;2023-12-29T11:16:56;96112.25;;;14.36;56.09
72636;BME280;60679;48.888;15.544;2023-12-29T11:19:22;96109.75;;;14.34;55.84
72636;BME280;60679;48.888;15.544;2023-12-29T11:21:54;96105.16;;;14.35;55.77
72636;BME280;60679;48.888;15.544;2023-12-29T11:24:20;96095.94;;;14.36;55.96
72636;BME280;60679;48.888;15.544;2023-12-29T11:26:46;96096.38;;;14.50;56.32
72636;BME280;60679;48.888;15.544;2023-12-29T11:29:12;96102.19;;;14.36;55.99
72636;BME280;60679;48.888;15.544;2023-12-29T11:31:38;96095.50;;;14.44;56.00
72636;BME280;60679;48.888;15.544;2023-12-29T11:34:22;96092.06;;;14.32;56.11
72636;BME280;60679;48.888;15.544;2023-12-29T11:36:50;96089.56;;;14.47;56.24
72636;BME280;60679;48.888;15.544;2023-12-29T11:39:40;96075.91;;;15.12;55.74
72636;BME280;60679;48.888;15.544;2023-12-29T11:42:21;96068.31;;;15.14;55.00
72636;BME280;60679;48.888;15.544;2023-12-29T12:41:41;96036.34;;;14.51;55.33
72636;BME280;60679;48.888;15.544;2023-12-29T12:44:12;96044.66;;;14.23;55.85
72636;BME280;60679;48.888;15.544;2023-12-29T12:49:34;96041.19;;;14.27;55.87
72636;BME280;60679;48.888;15.544;2023-12-29T12:52:00;96042.22;;;13.66;56.72
72636;BME280;60679;48.888;15.544;2023-12-29T12:54:48;96041.25;;;13.22;57.41
72636;BME280;60679;48.888;15.544;2023-12-29T12:57:18;96035.88;;;13.77;56.52
72636;BME280;60679;48.888;15.544;2023-12-29T13:00:20;96040.75;;;13.59;56.54
72636;BME280;60679;48.888;15.544;2023-12-29T13:02:48;96041.41;;;13.49;56.82
72636;BME280;60679;48.888;15.544;2023-12-29T13:05:16;96043.72;;;13.41;56.82
72636;BME280;60679;48.888;15.544;2023-12-29T13:07:42;96044.53;;;13.41;56.80
72636;BME280;60679;48.888;15.544;2023-12-29T13:10:07;96036.88;;;13.71;56.08
72636;BME280;60679;48.888;15.544;2023-12-29T13:12:34;96031.63;;;14.03;55.86
72636;BME280;60679;48.888;15.544;2023-12-29T13:15:09;96033.59;;;13.53;56.79
72636;BME280;60679;48.888;15.544;2023-12-29T13:17:35;96025.41;;;13.14;57.68
72636;BME280;60679;48.888;15.544;2023-12-29T13:20:01;96019.50;;;12.89;57.71
72636;BME280;60679;48.888;15.544;2023-12-29T13:22:28;96028.53;;;12.78;57.63
72636;BME280;60679;48.888;15.544;2023-12-29T13:24:54;96020.78;;;12.70;57.64
72636;BME280;60679;48.888;15.544;2023-12-29T13:27:20;96011.53;;;12.54;58.16
72636;BME280;60679;48.888;15.544;2023-12-29T13:29:47;96016.91;;;12.38;58.31
72636;BME280;60679;48.888;15.544;2023-12-29T13:32:20;96019.09;;;12.12;58.55
72636;BME280;60679;48.888;15.544;2023-12-29T13:34:48;96014.91;;;11.93;59.01
72636;BME280;60679;48.888;15.544;2023-12-29T13:37:22;96019.06;;;11.73;59.27
72636;BME280;60679;48.888;15.544;2023-12-29T13:39:55;96016.31;;;11.61;59.39
72636;BME280;60679;48.888;15.544;2023-12-29T13:42:23;96019.84;;;11.50;59.72
72636;BME280;60679;48.888;15.544;2023-12-29T13:44:55;96009.88;;;11.39;59.99
72636;BME280;60679;48.888;15.544;2023-12-29T13:47:22;96024.56;;;11.31;59.81
72636;BME280;60679;48.888;15.544;2023-12-29T13:49:49;96029.81;;;11.26;59.86
72636;BME280;60679;48.888;15.544;2023-12-29T13:52:15;96026.06;;;11.16;60.00
72636;BME280;60679;48.888;15.544;2023-12-29T13:54:43;96028.16;;;11.02;60.53
72636;BME280;60679;48.888;15.544;2023-12-29T13:57:08;96026.16;;;10.97;60.28
72636;BME280;60679;48.888;15.544;2023-12-29T13:59:34;96014.63;;;10.90;60.19
72636;BME280;60679;48.888;15.544;2023-12-29T14:02:23;96023.53;;;10.79;60.49